Impacts TAF Board INFO
FOR SITUATIONAL AWARENESS. NOT TO BE USED FOR FLIGHT PLANNING PURPOSES.
IDs:

KMIA - Miami Intl, FL, US

Issued at 0258 UTC 18 Dec 2017
Updated at 0500 UTC 18 Dec 2017
Potential Impact None Slight Moderate High
Time<<18/17Z 18/18Z 18/19Z 18/20Z 18/21Z 18/22Z 18/23Z 19/00Z 19/01Z 19/02Z 19/03Z 19/04Z 19/05Z>>
Type PRVL PRVL PRVL PRVL PRVL PRVL PRVL PRVL PRVL PRVL PRVL PRVL PRVL
VIS >6 >6 >6 >6 >6 >6 >6 >6 >6 >6 >6 >6 >6
CIG 50 50 50 50 50 50 50 -- -- -- -- -- --
Cover BKN BKN BKN BKN BKN BKN BKN FEW FEW FEW FEW FEW FEW
FltCat VFR VFR VFR VFR VFR VFR VFR VFR VFR VFR VFR VFR VFR
WX -- -- -- -- -- -- -- -- -- -- -- -- --
WDir 100 100 100 100 100 100 100 80 80 80 80 80 80
WSpd 10 10 10 10 10 10 10 6 6 6 6 6 6
WGst -- -- -- -- -- -- -- -- -- -- -- -- --

Raw TAF
KMIA 180258Z 1803/1906 10003KT P6SM FEW025 SCT050 SCT250
  FM180800 VRB03KT 6SM BR FEW001 SCT025 BKN050
  FM181500 10010KT P6SM FEW015 SCT030 BKN050
  FM190000 08006KT P6SM FEW250


METAR Board
Radar Display
Forecast Discussion

FOR SITUATIONAL AWARENESS. NOT TO BE USED FOR FLIGHT PLANNING PURPOSES.